sensor_id;sensor_type;location;lat;lon;timestamp;P1;durP1;ratioP1;P2;durP2;ratioP2
1136;SDS011;557;48.466;7.950;2023-08-01T00:00:17;4.43;;;3.53;;
1136;SDS011;557;48.466;7.950;2023-08-01T00:03:05;4.40;;;3.17;;
1136;SDS011;557;48.466;7.950;2023-08-01T00:05:53;4.27;;;3.87;;
1136;SDS011;557;48.466;7.950;2023-08-01T00:08:41;5.73;;;4.37;;
1136;SDS011;557;48.466;7.950;2023-08-01T00:11:28;6.20;;;4.40;;
1136;SDS011;557;48.466;7.950;2023-08-01T00:14:16;8.63;;;5.03;;
1136;SDS011;557;48.466;7.950;2023-08-01T00:17:07;6.23;;;4.17;;
1136;SDS011;557;48.466;7.950;2023-08-01T00:19:55;7.73;;;4.43;;
1136;SDS011;557;48.466;7.950;2023-08-01T00:22:43;4.73;;;4.23;;
1136;SDS011;557;48.466;7.950;2023-08-01T00:25:31;5.80;;;4.33;;
1136;SDS011;557;48.466;7.950;2023-08-01T00:28:18;4.57;;;4.10;;
1136;SDS011;557;48.466;7.950;2023-08-01T00:31:07;5.57;;;4.77;;
1136;SDS011;557;48.466;7.950;2023-08-01T00:33:57;4.50;;;4.10;;
1136;SDS011;557;48.466;7.950;2023-08-01T00:36:44;5.50;;;4.50;;
1136;SDS011;557;48.466;7.950;2023-08-01T00:39:32;9.03;;;4.40;;
1136;SDS011;557;48.466;7.950;2023-08-01T00:42:20;6.27;;;5.03;;
1136;SDS011;557;48.466;7.950;2023-08-01T00:45:08;5.53;;;5.13;;
1136;SDS011;557;48.466;7.950;2023-08-01T00:47:56;7.07;;;5.70;;
1136;SDS011;557;48.466;7.950;2023-08-01T00:50:46;5.80;;;5.30;;
1136;SDS011;557;48.466;7.950;2023-08-01T00:53:33;8.23;;;6.70;;
1136;SDS011;557;48.466;7.950;2023-08-01T00:56:22;7.60;;;6.90;;
1136;SDS011;557;48.466;7.950;2023-08-01T00:59:11;9.00;;;8.20;;
1136;SDS011;557;48.466;7.950;2023-08-01T01:01:59;10.33;;;9.43;;
1136;SDS011;557;48.466;7.950;2023-08-01T01:04:47;10.93;;;10.13;;
1136;SDS011;557;48.466;7.950;2023-08-01T01:07:37;10.23;;;9.57;;
1136;SDS011;557;48.466;7.950;2023-08-01T01:10:26;11.30;;;10.47;;
1136;SDS011;557;48.466;7.950;2023-08-01T01:13:13;11.47;;;10.63;;
1136;SDS011;557;48.466;7.950;2023-08-01T01:16:01;10.67;;;9.97;;
1136;SDS011;557;48.466;7.950;2023-08-01T01:18:49;11.80;;;11.10;;
1136;SDS011;557;48.466;7.950;2023-08-01T01:21:39;13.13;;;12.13;;
1136;SDS011;557;48.466;7.950;2023-08-01T01:24:28;11.90;;;11.20;;
1136;SDS011;557;48.466;7.950;2023-08-01T01:27:16;12.50;;;11.70;;
1136;SDS011;557;48.466;7.950;2023-08-01T01:30:05;12.53;;;11.70;;
1136;SDS011;557;48.466;7.950;2023-08-01T01:32:55;11.97;;;10.87;;
1136;SDS011;557;48.466;7.950;2023-08-01T01:35:42;11.90;;;11.10;;
1136;SDS011;557;48.466;7.950;2023-08-01T01:38:32;12.10;;;10.87;;
1136;SDS011;557;48.466;7.950;2023-08-01T01:41:19;11.87;;;11.07;;
1136;SDS011;557;48.466;7.950;2023-08-01T01:44:08;11.90;;;10.90;;
1136;SDS011;557;48.466;7.950;2023-08-01T01:46:55;11.63;;;10.93;;
1136;SDS011;557;48.466;7.950;2023-08-01T01:49:43;11.70;;;10.70;;
1136;SDS011;557;48.466;7.950;2023-08-01T01:52:31;10.27;;;9.63;;
1136;SDS011;557;48.466;7.950;2023-08-01T01:55:21;10.83;;;9.93;;
1136;SDS011;557;48.466;7.950;2023-08-01T01:58:08;10.23;;;9.33;;
1136;SDS011;557;48.466;7.950;2023-08-01T02:00:56;10.20;;;9.60;;
1136;SDS011;557;48.466;7.950;2023-08-01T02:03:44;10.30;;;9.60;;
1136;SDS011;557;48.466;7.950;2023-08-01T02:06:31;11.17;;;10.40;;
1136;SDS011;557;48.466;7.950;2023-08-01T02:09:19;10.17;;;9.50;;
1136;SDS011;557;48.466;7.950;2023-08-01T02:12:08;10.17;;;9.47;;
1136;SDS011;557;48.466;7.950;2023-08-01T02:14:59;9.90;;;9.10;;
1136;SDS011;557;48.466;7.950;2023-08-01T02:17:47;9.27;;;8.57;;
1136;SDS011;557;48.466;7.950;2023-08-01T02:20:35;10.10;;;9.40;;
1136;SDS011;557;48.466;7.950;2023-08-01T02:23:23;8.53;;;7.83;;
1136;SDS011;557;48.466;7.950;2023-08-01T02:26:11;6.30;;;5.70;;
1136;SDS011;557;48.466;7.950;2023-08-01T02:29:00;7.50;;;5.60;;
1136;SDS011;557;48.466;7.950;2023-08-01T02:31:48;4.77;;;4.20;;
1136;SDS011;557;48.466;7.950;2023-08-01T02:34:35;5.37;;;4.20;;
1136;SDS011;557;48.466;7.950;2023-08-01T02:37:23;5.43;;;4.27;;
1136;SDS011;557;48.466;7.950;2023-08-01T02:40:11;5.73;;;4.00;;
1136;SDS011;557;48.466;7.950;2023-08-01T02:42:59;5.80;;;3.87;;
1136;SDS011;557;48.466;7.950;2023-08-01T02:45:48;6.60;;;4.10;;
1136;SDS011;557;48.466;7.950;2023-08-01T02:48:36;5.90;;;4.60;;
1136;SDS011;557;48.466;7.950;2023-08-01T02:51:23;10.10;;;5.07;;
1136;SDS011;557;48.466;7.950;2023-08-01T02:54:11;6.70;;;4.53;;
1136;SDS011;557;48.466;7.950;2023-08-01T02:56:59;5.03;;;3.93;;
1136;SDS011;557;48.466;7.950;2023-08-01T03:02:58;6.83;;;4.30;;
1136;SDS011;557;48.466;7.950;2023-08-01T03:05:46;8.33;;;4.33;;
1136;SDS011;557;48.466;7.950;2023-08-01T03:08:34;7.43;;;4.57;;
1136;SDS011;557;48.466;7.950;2023-08-01T03:11:22;9.17;;;4.23;;
1136;SDS011;557;48.466;7.950;2023-08-01T03:14:09;7.00;;;4.13;;
1136;SDS011;557;48.466;7.950;2023-08-01T03:16:57;5.40;;;3.93;;
1136;SDS011;557;48.466;7.950;2023-08-01T03:19:46;9.03;;;4.20;;
1136;SDS011;557;48.466;7.950;2023-08-01T03:22:34;6.50;;;4.37;;
1136;SDS011;557;48.466;7.950;2023-08-01T03:25:22;8.30;;;4.63;;
1136;SDS011;557;48.466;7.950;2023-08-01T03:28:10;7.70;;;5.00;;
1136;SDS011;557;48.466;7.950;2023-08-01T03:30:57;5.47;;;4.40;;
1136;SDS011;557;48.466;7.950;2023-08-01T03:33:45;8.47;;;4.77;;
1136;SDS011;557;48.466;7.950;2023-08-01T03:36:34;5.80;;;4.40;;
1136;SDS011;557;48.466;7.950;2023-08-01T03:39:22;9.50;;;4.97;;
1136;SDS011;557;48.466;7.950;2023-08-01T03:42:09;7.53;;;4.23;;
1136;SDS011;557;48.466;7.950;2023-08-01T03:44:57;5.77;;;3.90;;
1136;SDS011;557;48.466;7.950;2023-08-01T03:47:45;9.80;;;5.50;;
1136;SDS011;557;48.466;7.950;2023-08-01T03:50:32;7.20;;;4.27;;
1136;SDS011;557;48.466;7.950;2023-08-01T03:53:22;5.90;;;4.40;;
1136;SDS011;557;48.466;7.950;2023-08-01T03:56:09;7.27;;;4.80;;
1136;SDS011;557;48.466;7.950;2023-08-01T03:58:58;7.17;;;4.63;;
1136;SDS011;557;48.466;7.950;2023-08-01T04:01:45;5.70;;;4.20;;
1136;SDS011;557;48.466;7.950;2023-08-01T04:04:33;5.50;;;3.93;;
1136;SDS011;557;48.466;7.950;2023-08-01T04:07:20;6.77;;;4.10;;
1136;SDS011;557;48.466;7.950;2023-08-01T04:10:10;5.73;;;4.50;;
1136;SDS011;557;48.466;7.950;2023-08-01T04:12:57;6.70;;;4.50;;
1136;SDS011;557;48.466;7.950;2023-08-01T04:15:45;6.63;;;4.07;;
1136;SDS011;557;48.466;7.950;2023-08-01T04:18:33;7.73;;;4.70;;
1136;SDS011;557;48.466;7.950;2023-08-01T04:21:20;6.77;;;4.47;;
1136;SDS011;557;48.466;7.950;2023-08-01T04:24:08;6.10;;;4.30;;
1136;SDS011;557;48.466;7.950;2023-08-01T04:26:57;15.93;;;5.63;;
1136;SDS011;557;48.466;7.950;2023-08-01T04:29:45;5.50;;;4.07;;
1136;SDS011;557;48.466;7.950;2023-08-01T04:32:33;5.93;;;4.33;;
1136;SDS011;557;48.466;7.950;2023-08-01T04:35:20;6.37;;;4.43;;
1136;SDS011;557;48.466;7.950;2023-08-01T04:38:08;7.27;;;3.97;;
1136;SDS011;557;48.466;7.950;2023-08-01T04:40:56;8.47;;;5.50;;
1136;SDS011;557;48.466;7.950;2023-08-01T04:43:45;6.83;;;4.90;;
1136;SDS011;557;48.466;7.950;2023-08-01T04:46:33;5.60;;;4.60;;
1136;SDS011;557;48.466;7.950;2023-08-01T04:49:21;4.93;;;4.00;;
1136;SDS011;557;48.466;7.950;2023-08-01T04:52:10;5.70;;;4.27;;
1136;SDS011;557;48.466;7.950;2023-08-01T04:54:57;4.80;;;3.60;;
1136;SDS011;557;48.466;7.950;2023-08-01T04:57:45;7.00;;;3.67;;
1136;SDS011;557;48.466;7.950;2023-08-01T05:00:34;6.03;;;4.27;;
1136;SDS011;557;48.466;7.950;2023-08-01T05:03:22;6.37;;;4.33;;
1136;SDS011;557;48.466;7.950;2023-08-01T05:06:10;5.63;;;3.53;;
1136;SDS011;557;48.466;7.950;2023-08-01T05:08:58;9.10;;;4.70;;
1136;SDS011;557;48.466;7.950;2023-08-01T05:11:46;6.00;;;4.70;;
1136;SDS011;557;48.466;7.950;2023-08-01T05:14:33;7.60;;;4.97;;
1136;SDS011;557;48.466;7.950;2023-08-01T05:17:23;7.50;;;4.80;;
1136;SDS011;557;48.466;7.950;2023-08-01T05:20:11;7.90;;;4.00;;
1136;SDS011;557;48.466;7.950;2023-08-01T05:22:59;6.13;;;4.40;;
1136;SDS011;557;48.466;7.950;2023-08-01T05:25:47;6.33;;;4.40;;
1136;SDS011;557;48.466;7.950;2023-08-01T05:28:35;8.70;;;5.13;;
1136;SDS011;557;48.466;7.950;2023-08-01T05:31:23;8.67;;;4.30;;
1136;SDS011;557;48.466;7.950;2023-08-01T05:34:13;7.80;;;4.67;;
1136;SDS011;557;48.466;7.950;2023-08-01T05:37:01;5.60;;;4.20;;
1136;SDS011;557;48.466;7.950;2023-08-01T05:39:49;6.73;;;4.00;;
1136;SDS011;557;48.466;7.950;2023-08-01T05:42:38;7.00;;;4.27;;
1136;SDS011;557;48.466;7.950;2023-08-01T05:45:26;7.53;;;5.03;;
1136;SDS011;557;48.466;7.950;2023-08-01T05:48:14;6.27;;;4.70;;
1136;SDS011;557;48.466;7.950;2023-08-01T05:51:04;5.47;;;4.67;;
1136;SDS011;557;48.466;7.950;2023-08-01T05:53:53;8.33;;;4.60;;
1136;SDS011;557;48.466;7.950;2023-08-01T05:56:41;6.70;;;4.17;;
1136;SDS011;557;48.466;7.950;2023-08-01T05:59:33;6.20;;;4.03;;
1136;SDS011;557;48.466;7.950;2023-08-01T06:02:21;8.17;;;4.63;;
1136;SDS011;557;48.466;7.950;2023-08-01T06:05:09;5.53;;;4.03;;
1136;SDS011;557;48.466;7.950;2023-08-01T06:07:59;7.80;;;4.97;;
1136;SDS011;557;48.466;7.950;2023-08-01T06:10:47;6.60;;;4.47;;
1136;SDS011;557;48.466;7.950;2023-08-01T06:13:36;8.20;;;5.47;;
1136;SDS011;557;48.466;7.950;2023-08-01T06:16:24;8.63;;;5.07;;
1136;SDS011;557;48.466;7.950;2023-08-01T06:19:12;7.20;;;4.23;;
1136;SDS011;557;48.466;7.950;2023-08-01T06:22:00;6.50;;;5.00;;
1136;SDS011;557;48.466;7.950;2023-08-01T06:24:50;7.83;;;5.10;;
1136;SDS011;557;48.466;7.950;2023-08-01T06:27:37;7.13;;;4.50;;
1136;SDS011;557;48.466;7.950;2023-08-01T06:30:26;5.10;;;3.67;;
1136;SDS011;557;48.466;7.950;2023-08-01T06:33:14;5.30;;;4.03;;
1136;SDS011;557;48.466;7.950;2023-08-01T06:36:03;6.90;;;4.00;;
1136;SDS011;557;48.466;7.950;2023-08-01T06:38:54;7.23;;;3.50;;
1136;SDS011;557;48.466;7.950;2023-08-01T06:41:44;5.10;;;3.80;;
1136;SDS011;557;48.466;7.950;2023-08-01T06:44:33;8.77;;;3.97;;
1136;SDS011;557;48.466;7.950;2023-08-01T06:47:21;4.97;;;3.40;;
1136;SDS011;557;48.466;7.950;2023-08-01T06:50:09;5.87;;;3.90;;
1136;SDS011;557;48.466;7.950;2023-08-01T06:52:57;6.20;;;3.67;;
1136;SDS011;557;48.466;7.950;2023-08-01T06:55:46;5.57;;;3.90;;
1136;SDS011;557;48.466;7.950;2023-08-01T06:58:36;5.27;;;3.80;;
1136;SDS011;557;48.466;7.950;2023-08-01T07:01:24;6.20;;;3.60;;
1136;SDS011;557;48.466;7.950;2023-08-01T07:04:13;5.40;;;3.80;;
1136;SDS011;557;48.466;7.950;2023-08-01T07:07:01;6.07;;;4.30;;
1136;SDS011;557;48.466;7.950;2023-08-01T07:09:51;7.90;;;4.20;;
1136;SDS011;557;48.466;7.950;2023-08-01T07:12:41;6.00;;;4.40;;
1136;SDS011;557;48.466;7.950;2023-08-01T07:15:31;8.50;;;4.40;;
1136;SDS011;557;48.466;7.950;2023-08-01T07:18:20;6.03;;;4.47;;
1136;SDS011;557;48.466;7.950;2023-08-01T07:21:08;11.33;;;5.03;;
1136;SDS011;557;48.466;7.950;2023-08-01T07:23:57;6.70;;;4.00;;
1136;SDS011;557;48.466;7.950;2023-08-01T07:26:45;7.50;;;4.53;;
1136;SDS011;557;48.466;7.950;2023-08-01T07:29:33;8.23;;;4.63;;
1136;SDS011;557;48.466;7.950;2023-08-01T07:32:23;8.33;;;4.80;;
1136;SDS011;557;48.466;7.950;2023-08-01T07:35:11;8.33;;;4.70;;
1136;SDS011;557;48.466;7.950;2023-08-01T07:37:59;8.60;;;5.47;;
1136;SDS011;557;48.466;7.950;2023-08-01T07:40:47;6.50;;;4.53;;
1136;SDS011;557;48.466;7.950;2023-08-01T07:43:37;7.33;;;5.27;;
1136;SDS011;557;48.466;7.950;2023-08-01T07:46:26;9.00;;;4.73;;
1136;SDS011;557;48.466;7.950;2023-08-01T07:49:15;8.83;;;4.33;;
1136;SDS011;557;48.466;7.950;2023-08-01T07:52:04;8.20;;;4.40;;
1136;SDS011;557;48.466;7.950;2023-08-01T07:54:53;8.30;;;5.50;;
1136;SDS011;557;48.466;7.950;2023-08-01T07:57:45;8.00;;;4.67;;
1136;SDS011;557;48.466;7.950;2023-08-01T08:00:34;8.27;;;4.27;;
1136;SDS011;557;48.466;7.950;2023-08-01T08:03:22;6.80;;;4.90;;
1136;SDS011;557;48.466;7.950;2023-08-01T08:06:11;9.43;;;5.70;;
1136;SDS011;557;48.466;7.950;2023-08-01T08:09:07;7.00;;;4.50;;
1136;SDS011;557;48.466;7.950;2023-08-01T08:12:00;9.87;;;5.07;;
1136;SDS011;557;48.466;7.950;2023-08-01T08:14:50;7.57;;;4.73;;
1136;SDS011;557;48.466;7.950;2023-08-01T08:17:41;7.53;;;4.93;;
1136;SDS011;557;48.466;7.950;2023-08-01T08:20:30;8.30;;;4.73;;
1136;SDS011;557;48.466;7.950;2023-08-01T08:23:21;6.47;;;4.40;;
1136;SDS011;557;48.466;7.950;2023-08-01T08:26:09;9.30;;;4.30;;
1136;SDS011;557;48.466;7.950;2023-08-01T08:28:57;5.77;;;3.63;;
1136;SDS011;557;48.466;7.950;2023-08-01T08:31:45;6.17;;;4.90;;
1136;SDS011;557;48.466;7.950;2023-08-01T08:34:34;7.30;;;4.37;;
1136;SDS011;557;48.466;7.950;2023-08-01T08:37:24;4.93;;;3.67;;
1136;SDS011;557;48.466;7.950;2023-08-01T08:40:14;7.23;;;4.80;;
1136;SDS011;557;48.466;7.950;2023-08-01T08:43:02;5.07;;;4.07;;
1136;SDS011;557;48.466;7.950;2023-08-01T08:45:51;5.73;;;3.83;;
1136;SDS011;557;48.466;7.950;2023-08-01T08:48:44;7.20;;;4.50;;
1136;SDS011;557;48.466;7.950;2023-08-01T08:51:32;5.60;;;3.63;;
1136;SDS011;557;48.466;7.950;2023-08-01T08:54:22;5.73;;;3.77;;
1136;SDS011;557;48.466;7.950;2023-08-01T08:57:12;5.60;;;3.93;;
1136;SDS011;557;48.466;7.950;2023-08-01T09:00:01;5.20;;;3.70;;
1136;SDS011;557;48.466;7.950;2023-08-01T09:02:52;5.00;;;3.73;;
1136;SDS011;557;48.466;7.950;2023-08-01T09:05:43;5.23;;;3.97;;
1136;SDS011;557;48.466;7.950;2023-08-01T09:08:36;6.73;;;3.63;;
1136;SDS011;557;48.466;7.950;2023-08-01T09:11:26;5.50;;;3.70;;
1136;SDS011;557;48.466;7.950;2023-08-01T09:14:20;6.97;;;4.00;;
1136;SDS011;557;48.466;7.950;2023-08-01T09:17:09;5.13;;;3.33;;
1136;SDS011;557;48.466;7.950;2023-08-01T09:20:03;5.97;;;4.00;;
1136;SDS011;557;48.466;7.950;2023-08-01T09:22:52;7.20;;;4.50;;
1136;SDS011;557;48.466;7.950;2023-08-01T09:25:41;6.67;;;4.50;;
1136;SDS011;557;48.466;7.950;2023-08-01T09:28:29;7.03;;;4.07;;
1136;SDS011;557;48.466;7.950;2023-08-01T09:31:25;6.50;;;4.17;;
1136;SDS011;557;48.466;7.950;2023-08-01T09:34:18;5.60;;;3.90;;
1136;SDS011;557;48.466;7.950;2023-08-01T09:37:07;7.13;;;4.50;;
1136;SDS011;557;48.466;7.950;2023-08-01T09:39:55;7.10;;;4.30;;
1136;SDS011;557;48.466;7.950;2023-08-01T09:42:44;5.03;;;3.87;;
1136;SDS011;557;48.466;7.950;2023-08-01T09:45:32;6.60;;;4.20;;
1136;SDS011;557;48.466;7.950;2023-08-01T09:48:23;6.60;;;3.60;;
1136;SDS011;557;48.466;7.950;2023-08-01T09:51:13;6.73;;;4.10;;
1136;SDS011;557;48.466;7.950;2023-08-01T09:54:04;8.00;;;4.20;;
1136;SDS011;557;48.466;7.950;2023-08-01T09:56:53;3.97;;;3.37;;
1136;SDS011;557;48.466;7.950;2023-08-01T09:59:43;4.53;;;3.27;;
1136;SDS011;557;48.466;7.950;2023-08-01T10:02:32;4.97;;;3.20;;
1136;SDS011;557;48.466;7.950;2023-08-01T10:05:22;4.63;;;3.27;;
1136;SDS011;557;48.466;7.950;2023-08-01T10:08:11;6.30;;;3.23;;
1136;SDS011;557;48.466;7.950;2023-08-01T10:11:04;6.60;;;3.27;;
1136;SDS011;557;48.466;7.950;2023-08-01T10:13:52;3.53;;;2.50;;
1136;SDS011;557;48.466;7.950;2023-08-01T10:16:40;5.20;;;3.37;;
1136;SDS011;557;48.466;7.950;2023-08-01T10:19:29;3.00;;;2.30;;
1136;SDS011;557;48.466;7.950;2023-08-01T10:22:21;2.83;;;2.33;;
1136;SDS011;557;48.466;7.950;2023-08-01T10:25:11;2.50;;;1.63;;
1136;SDS011;557;48.466;7.950;2023-08-01T10:28:05;3.00;;;1.70;;
1136;SDS011;557;48.466;7.950;2023-08-01T10:30:53;4.63;;;1.50;;
1136;SDS011;557;48.466;7.950;2023-08-01T10:33:42;3.10;;;2.00;;
1136;SDS011;557;48.466;7.950;2023-08-01T10:36:34;2.10;;;1.70;;
1136;SDS011;557;48.466;7.950;2023-08-01T10:39:28;2.50;;;1.90;;
1136;SDS011;557;48.466;7.950;2023-08-01T10:42:16;3.20;;;2.10;;
1136;SDS011;557;48.466;7.950;2023-08-01T10:45:05;2.27;;;1.70;;
1136;SDS011;557;48.466;7.950;2023-08-01T10:48:07;3.20;;;2.10;;
1136;SDS011;557;48.466;7.950;2023-08-01T10:50:58;2.03;;;1.83;;
1136;SDS011;557;48.466;7.950;2023-08-01T10:53:48;3.13;;;1.90;;
1136;SDS011;557;48.466;7.950;2023-08-01T10:56:39;2.20;;;1.93;;
1136;SDS011;557;48.466;7.950;2023-08-01T10:59:33;2.10;;;1.90;;
1136;SDS011;557;48.466;7.950;2023-08-01T11:02:23;3.40;;;2.07;;
1136;SDS011;557;48.466;7.950;2023-08-01T11:05:12;3.03;;;2.60;;
1136;SDS011;557;48.466;7.950;2023-08-01T11:08:03;2.37;;;2.10;;
1136;SDS011;557;48.466;7.950;2023-08-01T11:10:52;2.63;;;2.00;;
1136;SDS011;557;48.466;7.950;2023-08-01T11:13:42;3.03;;;2.20;;
1136;SDS011;557;48.466;7.950;2023-08-01T11:16:37;3.43;;;3.00;;
1136;SDS011;557;48.466;7.950;2023-08-01T11:19:26;2.50;;;2.30;;
1136;SDS011;557;48.466;7.950;2023-08-01T11:22:15;3.47;;;3.13;;
1136;SDS011;557;48.466;7.950;2023-08-01T11:25:04;3.40;;;3.20;;
1136;SDS011;557;48.466;7.950;2023-08-01T11:27:53;5.37;;;2.90;;
1136;SDS011;557;48.466;7.950;2023-08-01T11:30:43;4.00;;;3.70;;
1136;SDS011;557;48.466;7.950;2023-08-01T11:33:31;3.50;;;3.20;;
1136;SDS011;557;48.466;7.950;2023-08-01T11:36:19;3.70;;;3.40;;
1136;SDS011;557;48.466;7.950;2023-08-01T11:39:08;4.23;;;3.83;;
1136;SDS011;557;48.466;7.950;2023-08-01T11:41:56;3.33;;;3.03;;
1136;SDS011;557;48.466;7.950;2023-08-01T11:44:44;4.70;;;4.40;;
1136;SDS011;557;48.466;7.950;2023-08-01T11:47:34;5.00;;;4.70;;
1136;SDS011;557;48.466;7.950;2023-08-01T11:50:22;6.30;;;5.90;;
1136;SDS011;557;48.466;7.950;2023-08-01T11:53:18;6.90;;;6.50;;
1136;SDS011;557;48.466;7.950;2023-08-01T11:56:07;7.43;;;7.03;;
1136;SDS011;557;48.466;7.950;2023-08-01T11:58:56;9.20;;;8.80;;
1136;SDS011;557;48.466;7.950;2023-08-01T12:01:45;10.30;;;9.80;;
1136;SDS011;557;48.466;7.950;2023-08-01T12:04:36;10.00;;;9.60;;
1136;SDS011;557;48.466;7.950;2023-08-01T12:07:26;8.70;;;8.20;;
1136;SDS011;557;48.466;7.950;2023-08-01T12:10:15;9.97;;;9.37;;
1136;SDS011;557;48.466;7.950;2023-08-01T12:13:04;10.70;;;10.20;;
1136;SDS011;557;48.466;7.950;2023-08-01T12:15:53;12.25;;;11.65;;
1136;SDS011;557;48.466;7.950;2023-08-01T12:18:43;11.75;;;11.10;;
1136;SDS011;557;48.466;7.950;2023-08-01T12:21:33;11.47;;;10.90;;
1136;SDS011;557;48.466;7.950;2023-08-01T12:24:22;11.50;;;10.90;;
1136;SDS011;557;48.466;7.950;2023-08-01T12:27:11;10.00;;;9.60;;
1136;SDS011;557;48.466;7.950;2023-08-01T12:30:01;11.50;;;11.00;;
1136;SDS011;557;48.466;7.950;2023-08-01T12:32:49;11.37;;;10.77;;
1136;SDS011;557;48.466;7.950;2023-08-01T12:35:39;11.00;;;10.40;;
1136;SDS011;557;48.466;7.950;2023-08-01T12:38:30;11.87;;;11.27;;
1136;SDS011;557;48.466;7.950;2023-08-01T12:41:19;12.13;;;11.63;;
1136;SDS011;557;48.466;7.950;2023-08-01T12:44:07;12.50;;;11.90;;
1136;SDS011;557;48.466;7.950;2023-08-01T12:46:55;12.60;;;12.10;;
1136;SDS011;557;48.466;7.950;2023-08-01T12:49:43;13.65;;;12.95;;
1136;SDS011;557;48.466;7.950;2023-08-01T12:52:35;13.45;;;12.85;;
1136;SDS011;557;48.466;7.950;2023-08-01T12:55:25;13.80;;;13.18;;
1136;SDS011;557;48.466;7.950;2023-08-01T12:58:14;14.00;;;13.40;;
1136;SDS011;557;48.466;7.950;2023-08-01T13:01:03;13.38;;;12.68;;
1136;SDS011;557;48.466;7.950;2023-08-01T13:03:58;13.32;;;12.70;;
1136;SDS011;557;48.466;7.950;2023-08-01T13:06:47;13.50;;;12.80;;
1136;SDS011;557;48.466;7.950;2023-08-01T13:09:35;14.27;;;13.57;;
1136;SDS011;557;48.466;7.950;2023-08-01T13:12:25;13.85;;;13.25;;
1136;SDS011;557;48.466;7.950;2023-08-01T13:15:13;14.13;;;13.43;;
1136;SDS011;557;48.466;7.950;2023-08-01T13:18:02;14.50;;;13.80;;
1136;SDS011;557;48.466;7.950;2023-08-01T13:20:50;13.55;;;12.85;;
1136;SDS011;557;48.466;7.950;2023-08-01T13:23:38;13.98;;;13.38;;
1136;SDS011;557;48.466;7.950;2023-08-01T13:26:26;14.10;;;13.30;;
1136;SDS011;557;48.466;7.950;2023-08-01T13:29:17;14.50;;;13.90;;
1136;SDS011;557;48.466;7.950;2023-08-01T13:32:05;14.05;;;13.45;;
1136;SDS011;557;48.466;7.950;2023-08-01T13:34:55;13.98;;;13.27;;
1136;SDS011;557;48.466;7.950;2023-08-01T13:37:44;14.00;;;13.30;;
1136;SDS011;557;48.466;7.950;2023-08-01T13:40:32;13.83;;;13.23;;
1136;SDS011;557;48.466;7.950;2023-08-01T13:43:21;13.20;;;12.50;;
1136;SDS011;557;48.466;7.950;2023-08-01T13:46:12;13.30;;;12.70;;
1136;SDS011;557;48.466;7.950;2023-08-01T13:49:06;14.00;;;13.40;;
1136;SDS011;557;48.466;7.950;2023-08-01T13:51:57;14.65;;;13.95;;
1136;SDS011;557;48.466;7.950;2023-08-01T13:54:45;14.18;;;13.48;;
1136;SDS011;557;48.466;7.950;2023-08-01T13:57:36;14.00;;;13.40;;
1136;SDS011;557;48.466;7.950;2023-08-01T14:00:25;14.40;;;13.70;;
1136;SDS011;557;48.466;7.950;2023-08-01T14:03:14;14.30;;;13.70;;
1136;SDS011;557;48.466;7.950;2023-08-01T14:06:04;14.55;;;13.85;;
1136;SDS011;557;48.466;7.950;2023-08-01T14:08:53;14.53;;;13.83;;
1136;SDS011;557;48.466;7.950;2023-08-01T14:11:42;14.20;;;13.57;;
1136;SDS011;557;48.466;7.950;2023-08-01T14:14:33;13.87;;;13.27;;
1136;SDS011;557;48.466;7.950;2023-08-01T14:17:23;13.90;;;13.30;;
1136;SDS011;557;48.466;7.950;2023-08-01T14:20:12;14.00;;;13.30;;
1136;SDS011;557;48.466;7.950;2023-08-01T14:23:04;13.57;;;12.97;;
1136;SDS011;557;48.466;7.950;2023-08-01T14:25:52;13.25;;;12.65;;
1136;SDS011;557;48.466;7.950;2023-08-01T14:28:41;14.05;;;13.30;;
1136;SDS011;557;48.466;7.950;2023-08-01T14:31:29;13.70;;;13.10;;
1136;SDS011;557;48.466;7.950;2023-08-01T14:34:17;14.18;;;13.10;;
1136;SDS011;557;48.466;7.950;2023-08-01T14:37:07;14.30;;;13.60;;
1136;SDS011;557;48.466;7.950;2023-08-01T14:39:56;14.55;;;13.85;;
1136;SDS011;557;48.466;7.950;2023-08-01T14:42:44;14.70;;;14.00;;
1136;SDS011;557;48.466;7.950;2023-08-01T14:45:36;15.15;;;14.25;;
1136;SDS011;557;48.466;7.950;2023-08-01T14:48:26;14.07;;;13.38;;
1136;SDS011;557;48.466;7.950;2023-08-01T14:51:15;14.90;;;14.20;;
1136;SDS011;557;48.466;7.950;2023-08-01T14:54:05;15.30;;;14.60;;
1136;SDS011;557;48.466;7.950;2023-08-01T14:56:53;14.20;;;13.50;;
1136;SDS011;557;48.466;7.950;2023-08-01T14:59:41;13.80;;;13.07;;
1136;SDS011;557;48.466;7.950;2023-08-01T15:02:31;14.65;;;13.95;;
1136;SDS011;557;48.466;7.950;2023-08-01T15:05:19;14.57;;;13.98;;
1136;SDS011;557;48.466;7.950;2023-08-01T15:08:08;15.70;;;14.70;;
1136;SDS011;557;48.466;7.950;2023-08-01T15:10:58;14.50;;;13.80;;
1136;SDS011;557;48.466;7.950;2023-08-01T15:13:52;14.95;;;14.15;;
1136;SDS011;557;48.466;7.950;2023-08-01T15:16:42;14.80;;;14.10;;
1136;SDS011;557;48.466;7.950;2023-08-01T15:19:31;14.88;;;14.18;;
1136;SDS011;557;48.466;7.950;2023-08-01T15:22:20;15.60;;;14.80;;
1136;SDS011;557;48.466;7.950;2023-08-01T15:25:09;15.52;;;14.82;;
1136;SDS011;557;48.466;7.950;2023-08-01T15:28:01;15.52;;;14.73;;
1136;SDS011;557;48.466;7.950;2023-08-01T15:30:49;15.50;;;14.70;;
1136;SDS011;557;48.466;7.950;2023-08-01T15:33:48;15.50;;;14.80;;
1136;SDS011;557;48.466;7.950;2023-08-01T15:36:39;16.48;;;15.48;;
1136;SDS011;557;48.466;7.950;2023-08-01T15:39:28;15.25;;;14.55;;
1136;SDS011;557;48.466;7.950;2023-08-01T15:42:16;15.97;;;15.17;;
1136;SDS011;557;48.466;7.950;2023-08-01T15:45:08;15.50;;;14.80;;
1136;SDS011;557;48.466;7.950;2023-08-01T15:47:59;15.50;;;14.70;;
1136;SDS011;557;48.466;7.950;2023-08-01T15:50:48;15.30;;;14.43;;
1136;SDS011;557;48.466;7.950;2023-08-01T15:53:37;15.43;;;14.50;;
1136;SDS011;557;48.466;7.950;2023-08-01T15:56:26;15.00;;;14.20;;
1136;SDS011;557;48.466;7.950;2023-08-01T15:59:15;15.80;;;15.00;;
1136;SDS011;557;48.466;7.950;2023-08-01T16:02:05;15.50;;;14.70;;
1136;SDS011;557;48.466;7.950;2023-08-01T16:04:54;15.23;;;14.52;;
1136;SDS011;557;48.466;7.950;2023-08-01T16:07:42;15.20;;;14.50;;
1136;SDS011;557;48.466;7.950;2023-08-01T16:10:30;15.60;;;14.80;;
1136;SDS011;557;48.466;7.950;2023-08-01T16:13:19;15.30;;;14.60;;
1136;SDS011;557;48.466;7.950;2023-08-01T16:16:07;15.57;;;14.87;;
1136;SDS011;557;48.466;7.950;2023-08-01T16:18:57;15.87;;;15.07;;
1136;SDS011;557;48.466;7.950;2023-08-01T16:21:46;15.48;;;14.70;;
1136;SDS011;557;48.466;7.950;2023-08-01T16:24:34;15.75;;;14.95;;
1136;SDS011;557;48.466;7.950;2023-08-01T16:27:24;16.02;;;15.32;;
1136;SDS011;557;48.466;7.950;2023-08-01T16:30:13;16.33;;;15.52;;
1136;SDS011;557;48.466;7.950;2023-08-01T16:33:01;16.33;;;15.48;;
1136;SDS011;557;48.466;7.950;2023-08-01T16:35:51;16.37;;;15.57;;
1136;SDS011;557;48.466;7.950;2023-08-01T16:38:39;15.90;;;15.20;;
1136;SDS011;557;48.466;7.950;2023-08-01T16:41:27;16.48;;;15.57;;
1136;SDS011;557;48.466;7.950;2023-08-01T16:44:16;17.63;;;16.63;;
1136;SDS011;557;48.466;7.950;2023-08-01T16:47:05;17.05;;;16.25;;
1136;SDS011;557;48.466;7.950;2023-08-01T16:49:54;17.77;;;16.75;;
1136;SDS011;557;48.466;7.950;2023-08-01T16:52:45;16.92;;;16.02;;
1136;SDS011;557;48.466;7.950;2023-08-01T16:55:34;16.73;;;15.93;;
1136;SDS011;557;48.466;7.950;2023-08-01T16:58:23;17.02;;;16.20;;
1136;SDS011;557;48.466;7.950;2023-08-01T17:01:12;17.70;;;16.80;;
1136;SDS011;557;48.466;7.950;2023-08-01T17:04:01;16.40;;;15.60;;
1136;SDS011;557;48.466;7.950;2023-08-01T17:06:49;16.00;;;15.20;;
1136;SDS011;557;48.466;7.950;2023-08-01T17:09:39;15.88;;;15.18;;
1136;SDS011;557;48.466;7.950;2023-08-01T17:12:26;17.43;;;16.27;;
1136;SDS011;557;48.466;7.950;2023-08-01T17:15:15;16.50;;;15.70;;
1136;SDS011;557;48.466;7.950;2023-08-01T17:18:04;16.27;;;15.47;;
1136;SDS011;557;48.466;7.950;2023-08-01T17:20:52;16.35;;;15.55;;
1136;SDS011;557;48.466;7.950;2023-08-01T17:23:43;16.27;;;15.40;;
1136;SDS011;557;48.466;7.950;2023-08-01T17:26:32;16.17;;;15.40;;
1136;SDS011;557;48.466;7.950;2023-08-01T17:29:22;28.13;;;25.73;;
1136;SDS011;557;48.466;7.950;2023-08-01T17:32:10;16.47;;;15.67;;
1136;SDS011;557;48.466;7.950;2023-08-01T17:34:58;16.77;;;15.87;;
1136;SDS011;557;48.466;7.950;2023-08-01T17:37:47;17.10;;;16.10;;